Time;durP1;ratioP1;P1;durP2;ratioP2;P2;SDS_P1;SDS_P2;PMS_P1;PMS_P2;Temp;Humidity;BMP_temperature;BMP_pressure;BME280_temperature;BME280_humidity;BME280_pressure;Samples;Min_cycle;Max_cycle;Signal;HPM_P1;HPM_P2
2024/02/16 00:02:05;;;;;;;47.65;28.15;;;;;;;;;;5115841;28;20038;-56
2024/02/16 00:04:31;;;;;;;47.10;28.30;;;;;;;;;;5115817;28;20020;-56
2024/02/16 00:06:56;;;;;;;53.03;29.73;;;;;;;;;;5116127;28;20024;-57
2024/02/16 00:09:21;;;;;;;49.17;27.83;;;;;;;;;;5116477;28;20469;-56
2024/02/16 00:11:48;;;;;;;46.15;27.35;;;;;;;;;;5116100;28;20028;-56
2024/02/16 00:14:14;;;;;;;43.38;27.13;;;;;;;;;;5115977;28;20176;-56
2024/02/16 00:16:39;;;;;;;51.10;28.42;;;;;;;;;;5097811;28;20536;-57
2024/02/16 00:19:04;;;;;;;45.45;26.27;;;;;;;;;;5116181;28;20036;-57
2024/02/16 00:21:35;;;;;;;46.88;25.45;;;;;;;;;;5116083;28;20016;-57
2024/02/16 00:24:02;;;;;;;47.22;25.42;;;;;;;;;;5115747;28;20035;-57
2024/02/16 00:26:28;;;;;;;48.13;24.40;;;;;;;;;;5115993;28;20102;-57
2024/02/16 00:28:53;;;;;;;41.88;24.67;;;;;;;;;;5116202;28;20055;-57
2024/02/16 00:31:19;;;;;;;41.40;24.55;;;;;;;;;;5116049;28;20042;-57
2024/02/16 00:33:44;;;;;;;38.67;23.08;;;;;;;;;;5115880;28;20104;-57
2024/02/16 00:36:10;;;;;;;46.45;25.38;;;;;;;;;;5097219;28;20023;-57
2024/02/16 00:38:35;;;;;;;42.85;22.70;;;;;;;;;;5115669;28;20103;-57
2024/02/16 00:41:01;;;;;;;39.13;22.98;;;;;;;;;;5115948;28;20370;-57
2024/02/16 00:43:27;;;;;;;40.47;22.75;;;;;;;;;;5115948;28;20028;-57
2024/02/16 00:45:52;;;;;;;36.75;22.23;;;;;;;;;;5115354;28;20032;-56
2024/02/16 00:48:18;;;;;;;45.25;30.77;;;;;;;;;;5115551;28;20042;-56
2024/02/16 00:50:43;;;;;;;42.33;27.23;;;;;;;;;;5114965;28;20489;-57
2024/02/16 00:53:08;;;;;;;41.20;28.40;;;;;;;;;;5115413;28;20027;-56
2024/02/16 00:55:34;;;;;;;45.22;23.98;;;;;;;;;;5097249;28;20040;-56
2024/02/16 00:57:59;;;;;;;37.33;21.48;;;;;;;;;;5115105;28;20458;-56
2024/02/16 01:00:24;;;;;;;37.80;22.40;;;;;;;;;;5115088;28;20031;-56
2024/02/16 01:02:52;;;;;;;35.60;21.67;;;;;;;;;;5114196;28;20108;-57
2024/02/16 01:05:18;;;;;;;37.35;22.45;;;;;;;;;;5114128;28;20530;-56
2024/02/16 01:07:43;;;;;;;39.42;22.20;;;;;;;;;;5114169;28;20038;-56
2024/02/16 01:10:09;;;;;;;38.60;22.95;;;;;;;;;;5114114;28;20354;-55
2024/02/16 01:12:34;;;;;;;37.20;22.23;;;;;;;;;;5113930;28;20036;-56
2024/02/16 01:15:00;;;;;;;35.45;21.10;;;;;;;;;;5113766;28;20545;-56
2024/02/16 01:17:25;;;;;;;39.20;23.02;;;;;;;;;;5113528;28;20040;-57
2024/02/16 01:19:51;;;;;;;36.38;21.77;;;;;;;;;;5113461;28;20530;-57
2024/02/16 01:22:16;;;;;;;38.40;22.63;;;;;;;;;;5113064;28;20023;-57
2024/02/16 01:24:41;;;;;;;37.50;21.42;;;;;;;;;;5113166;28;20050;-57
2024/02/16 01:27:07;;;;;;;36.90;21.95;;;;;;;;;;5113686;28;20027;-57
2024/02/16 01:29:32;;;;;;;38.40;22.48;;;;;;;;;;5113680;28;20152;-57
2024/02/16 01:31:58;;;;;;;35.40;21.13;;;;;;;;;;5113540;28;20441;-56
2024/02/16 01:34:23;;;;;;;35.90;21.77;;;;;;;;;;5113488;28;20036;-56
2024/02/16 01:36:49;;;;;;;39.40;22.35;;;;;;;;;;5114360;28;20063;-56
2024/02/16 01:39:14;;;;;;;36.20;21.77;;;;;;;;;;5114594;28;20032;-56
2024/02/16 01:41:39;;;;;;;33.60;20.75;;;;;;;;;;5079292;28;20385;-57
2024/02/16 01:44:05;;;;;;;32.42;19.60;;;;;;;;;;5114462;28;20038;-57
2024/02/16 01:46:31;;;;;;;36.30;21.13;;;;;;;;;;5114239;28;20027;-56
2024/02/16 01:48:56;;;;;;;30.50;20.25;;;;;;;;;;5114823;28;20027;-56
2024/02/16 01:51:23;;;;;;;33.00;20.38;;;;;;;;;;5114547;28;20023;-57
2024/02/16 01:53:48;;;;;;;45.58;29.85;;;;;;;;;;5114197;28;20465;-56
2024/02/16 01:56:13;;;;;;;48.45;29.58;;;;;;;;;;5114390;28;20020;-56
2024/02/16 01:58:39;;;;;;;35.83;23.83;;;;;;;;;;5114154;28;20406;-56
2024/02/16 02:01:04;;;;;;;35.17;22.30;;;;;;;;;;5095875;28;20500;-56
2024/02/16 02:03:29;;;;;;;31.83;20.48;;;;;;;;;;5096349;28;20088;-56
2024/02/16 02:05:55;;;;;;;32.25;21.77;;;;;;;;;;5114343;28;20067;-56
2024/02/16 02:08:21;;;;;;;31.23;19.42;;;;;;;;;;5114112;28;20554;-56
2024/02/16 02:10:46;;;;;;;29.70;18.67;;;;;;;;;;5114579;28;20028;-56
2024/02/16 02:13:12;;;;;;;29.80;17.40;;;;;;;;;;5096161;28;20019;-56
2024/02/16 02:15:37;;;;;;;29.60;19.55;;;;;;;;;;5113807;28;20044;-56
2024/02/16 02:18:02;;;;;;;30.63;19.13;;;;;;;;;;5113971;28;20059;-56
2024/02/16 02:20:28;;;;;;;30.80;19.67;;;;;;;;;;5114364;28;20115;-56
2024/02/16 02:22:53;;;;;;;28.98;18.95;;;;;;;;;;5114210;28;20031;-56
2024/02/16 02:25:18;;;;;;;30.88;19.35;;;;;;;;;;5114133;28;20469;-61
2024/02/16 02:27:44;;;;;;;30.40;19.42;;;;;;;;;;5114311;28;20394;-61
2024/02/16 02:30:09;;;;;;;29.45;18.90;;;;;;;;;;5114310;28;20544;-61
2024/02/16 02:32:35;;;;;;;29.80;18.55;;;;;;;;;;5114126;28;20042;-61
2024/02/16 02:35:01;;;;;;;28.17;18.15;;;;;;;;;;5114321;28;20047;-56
2024/02/16 02:37:27;;;;;;;28.63;18.95;;;;;;;;;;5113711;28;20088;-56
2024/02/16 02:39:52;;;;;;;28.17;18.02;;;;;;;;;;5113807;28;20027;-56
2024/02/16 02:42:17;;;;;;;26.75;17.85;;;;;;;;;;5114088;28;20028;-56
2024/02/16 02:44:49;;;;;;;28.58;18.48;;;;;;;;;;5114335;28;20035;-56
2024/02/16 02:47:15;;;;;;;28.77;18.35;;;;;;;;;;5113723;28;20028;-56
2024/02/16 02:49:40;;;;;;;27.92;18.42;;;;;;;;;;5114050;28;20465;-55
2024/02/16 02:52:06;;;;;;;29.38;19.27;;;;;;;;;;5113913;28;20023;-56
2024/02/16 02:54:32;;;;;;;30.75;20.38;;;;;;;;;;5096222;28;20028;-56
2024/02/16 02:56:57;;;;;;;28.02;18.35;;;;;;;;;;5113976;28;20480;-55
2024/02/16 02:59:24;;;;;;;26.40;17.85;;;;;;;;;;5113615;28;20019;-56
2024/02/16 03:01:49;;;;;;;25.98;17.75;;;;;;;;;;5113785;28;20038;-56
2024/02/16 03:04:14;;;;;;;28.90;20.25;;;;;;;;;;5113899;28;20028;-56
2024/02/16 03:06:40;;;;;;;26.42;17.15;;;;;;;;;;5138336;22;20086;-60
2024/02/16 03:09:06;;;;;;;27.00;18.45;;;;;;;;;;5124810;22;20055;-56
2024/02/16 03:11:31;;;;;;;30.67;19.05;;;;;;;;;;5140712;22;20058;-56
2024/02/16 03:13:57;;;;;;;31.80;18.75;;;;;;;;;;5145092;22;20022;-61
2024/02/16 03:16:23;;;;;;;28.95;18.00;;;;;;;;;;5128586;22;20055;-61
2024/02/16 03:18:49;;;;;;;27.40;17.60;;;;;;;;;;5117576;28;20072;-63
2024/02/16 03:21:16;;;;;;;29.13;18.23;;;;;;;;;;5117006;28;20062;-62
2024/02/16 03:23:42;;;;;;;25.98;17.42;;;;;;;;;;5117258;28;20380;-62
2024/02/16 03:26:13;;;;;;;28.20;16.80;;;;;;;;;;5098596;28;20028;-62
2024/02/16 03:28:39;;;;;;;24.15;16.70;;;;;;;;;;5117118;28;20393;-62
2024/02/16 03:31:04;;;;;;;32.08;22.02;;;;;;;;;;5116777;28;20024;-62
2024/02/16 03:33:30;;;;;;;30.15;20.73;;;;;;;;;;5117033;28;20389;-62
2024/02/16 03:35:55;;;;;;;34.40;23.15;;;;;;;;;;5116646;28;20019;-61
2024/02/16 03:38:21;;;;;;;31.42;21.77;;;;;;;;;;5117236;28;20076;-62
2024/02/16 03:40:46;;;;;;;32.88;23.00;;;;;;;;;;5098817;28;20035;-62
2024/02/16 03:43:12;;;;;;;31.60;22.45;;;;;;;;;;5116577;28;20099;-62
2024/02/16 03:45:37;;;;;;;32.42;22.48;;;;;;;;;;5116507;28;20476;-61
2024/02/16 03:48:03;;;;;;;32.92;23.42;;;;;;;;;;5098631;28;20027;-61
2024/02/16 03:50:28;;;;;;;25.40;17.33;;;;;;;;;;5116997;28;20431;-61
2024/02/16 03:52:54;;;;;;;22.40;15.32;;;;;;;;;;5116421;28;20038;-61
2024/02/16 03:55:20;;;;;;;24.67;15.90;;;;;;;;;;5098041;28;20019;-61
2024/02/16 03:57:45;;;;;;;24.33;15.35;;;;;;;;;;5098359;28;20039;-61
2024/02/16 04:00:12;;;;;;;24.67;16.15;;;;;;;;;;5116560;28;20027;-61
2024/02/16 04:02:40;;;;;;;31.77;24.60;;;;;;;;;;5116496;28;20081;-61
2024/02/16 04:05:07;;;;;;;26.42;16.27;;;;;;;;;;5116729;28;20024;-61
2024/02/16 04:07:33;;;;;;;25.02;15.52;;;;;;;;;;5116090;28;20039;-61
2024/02/16 04:10:00;;;;;;;25.10;15.68;;;;;;;;;;5116327;28;20038;-61
2024/02/16 04:12:25;;;;;;;21.38;15.27;;;;;;;;;;5116035;28;20469;-63
2024/02/16 04:14:51;;;;;;;26.08;16.17;;;;;;;;;;5115952;28;20031;-62
2024/02/16 04:17:17;;;;;;;21.23;15.38;;;;;;;;;;5115458;28;20442;-62
2024/02/16 04:19:42;;;;;;;23.92;16.25;;;;;;;;;;5115901;28;20464;-63
2024/02/16 04:22:07;;;;;;;23.15;15.63;;;;;;;;;;5115852;28;20080;-62
2024/02/16 04:24:33;;;;;;;22.17;15.23;;;;;;;;;;5115170;28;20362;-62
2024/02/16 04:26:58;;;;;;;23.33;14.90;;;;;;;;;;5115756;28;20389;-62
2024/02/16 04:29:23;;;;;;;25.08;16.30;;;;;;;;;;5116244;28;20027;-61
2024/02/16 04:31:49;;;;;;;26.25;16.83;;;;;;;;;;5115619;28;20027;-61
2024/02/16 04:34:14;;;;;;;28.38;17.83;;;;;;;;;;5116124;28;20068;-61
2024/02/16 04:36:40;;;;;;;29.80;18.17;;;;;;;;;;5097188;28;20035;-61
2024/02/16 04:39:05;;;;;;;34.40;20.00;;;;;;;;;;5116019;28;20099;-61
2024/02/16 04:41:31;;;;;;;33.53;20.10;;;;;;;;;;5097182;28;20032;-61
2024/02/16 04:43:56;;;;;;;34.60;19.00;;;;;;;;;;5115702;28;20012;-61
2024/02/16 04:46:21;;;;;;;35.13;18.55;;;;;;;;;;5097196;28;20444;-61
2024/02/16 04:48:47;;;;;;;32.47;19.48;;;;;;;;;;5114893;28;20059;-61
2024/02/16 04:51:12;;;;;;;30.13;17.92;;;;;;;;;;5113255;28;20031;-61
2024/02/16 04:53:37;;;;;;;31.65;18.63;;;;;;;;;;5113398;28;20035;-61
2024/02/16 04:56:03;;;;;;;32.00;18.38;;;;;;;;;;5113202;28;20024;-61
2024/02/16 04:58:28;;;;;;;28.85;18.48;;;;;;;;;;5113586;28;20084;-61
2024/02/16 05:00:53;;;;;;;31.27;18.83;;;;;;;;;;5113212;28;20022;-61
2024/02/16 05:03:19;;;;;;;32.70;19.05;;;;;;;;;;5093374;28;20028;-61
2024/02/16 05:05:45;;;;;;;33.30;19.95;;;;;;;;;;5112461;28;20106;-61
2024/02/16 05:08:10;;;;;;;35.70;22.20;;;;;;;;;;5113761;28;20465;-61
2024/02/16 05:10:36;;;;;;;35.70;21.92;;;;;;;;;;5114924;28;20023;-61
2024/02/16 05:13:01;;;;;;;29.83;19.35;;;;;;;;;;5114860;28;20422;-61
2024/02/16 05:15:27;;;;;;;29.50;18.95;;;;;;;;;;5115077;28;20031;-61
2024/02/16 05:17:53;;;;;;;28.35;17.42;;;;;;;;;;5114733;28;20039;-61
2024/02/16 05:20:19;;;;;;;25.77;17.92;;;;;;;;;;5114701;28;20059;-61
2024/02/16 05:22:48;;;;;;;33.65;23.50;;;;;;;;;;5114944;28;20034;-61
2024/02/16 05:25:14;;;;;;;41.08;28.20;;;;;;;;;;5114913;28;20030;-61
2024/02/16 05:27:40;;;;;;;39.17;26.80;;;;;;;;;;5114572;28;20445;-61
2024/02/16 05:30:07;;;;;;;34.63;21.58;;;;;;;;;;5114527;28;20367;-61
2024/02/16 05:32:36;;;;;;;35.97;22.30;;;;;;;;;;5114752;28;20020;-61
2024/02/16 05:35:11;;;;;;;35.65;21.70;;;;;;;;;;5114698;28;20110;-61
2024/02/16 05:37:40;;;;;;;30.85;19.80;;;;;;;;;;5113949;28;20442;-61
2024/02/16 05:40:18;;;;;;;28.02;17.98;;;;;;;;;;5114703;28;20027;-61
2024/02/16 05:42:44;;;;;;;23.40;15.95;;;;;;;;;;5114382;28;20473;-61
2024/02/16 05:45:10;;;;;;;23.55;16.00;;;;;;;;;;5096074;28;20066;-61
2024/02/16 05:47:38;;;;;;;22.13;16.23;;;;;;;;;;5114297;28;20059;-61
2024/02/16 05:50:03;;;;;;;22.92;16.02;;;;;;;;;;5114583;28;20118;-61
2024/02/16 05:52:30;;;;;;;23.98;16.55;;;;;;;;;;5114776;28;20063;-61
2024/02/16 05:54:55;;;;;;;22.08;15.35;;;;;;;;;;5114241;28;20015;-61
2024/02/16 05:57:20;;;;;;;22.67;15.02;;;;;;;;;;5095855;28;20080;-61
2024/02/16 05:59:46;;;;;;;16.52;12.57;;;;;;;;;;5114710;28;20028;-61
2024/02/16 06:02:11;;;;;;;16.00;12.50;;;;;;;;;;5095911;28;20028;-61
2024/02/16 06:04:37;;;;;;;17.33;12.60;;;;;;;;;;5114352;28;20034;-61
2024/02/16 06:07:02;;;;;;;19.90;13.38;;;;;;;;;;5114597;28;20028;-61
2024/02/16 06:09:33;;;;;;;17.88;13.38;;;;;;;;;;5114374;28;20035;-61
2024/02/16 06:12:00;;;;;;;21.98;13.82;;;;;;;;;;5114206;28;20118;-62
2024/02/16 06:14:25;;;;;;;19.80;14.98;;;;;;;;;;5114086;28;20384;-61
2024/02/16 06:16:51;;;;;;;21.17;14.48;;;;;;;;;;5095625;28;20115;-61
2024/02/16 06:19:16;;;;;;;22.80;15.00;;;;;;;;;;5114290;28;20024;-61
2024/02/16 06:21:41;;;;;;;23.77;14.95;;;;;;;;;;5113995;28;20404;-62
2024/02/16 06:24:07;;;;;;;22.42;14.82;;;;;;;;;;5113946;28;20369;-62
2024/02/16 06:26:33;;;;;;;23.67;14.57;;;;;;;;;;5114221;28;20027;-61
2024/02/16 06:28:58;;;;;;;19.30;13.77;;;;;;;;;;5113906;28;20449;-61
2024/02/16 06:31:23;;;;;;;18.65;12.73;;;;;;;;;;5114183;28;20030;-61
2024/02/16 06:33:48;;;;;;;16.00;11.65;;;;;;;;;;5113818;28;20031;-61
2024/02/16 06:36:14;;;;;;;17.17;12.55;;;;;;;;;;5113674;28;20478;-61
2024/02/16 06:38:39;;;;;;;15.82;12.43;;;;;;;;;;5113889;28;20073;-61
2024/02/16 06:41:04;;;;;;;18.67;13.07;;;;;;;;;;5114104;28;20051;-61
2024/02/16 06:43:30;;;;;;;15.90;11.85;;;;;;;;;;5113711;28;20037;-61
2024/02/16 06:45:56;;;;;;;16.52;12.35;;;;;;;;;;5113721;28;20484;-61
2024/02/16 06:48:22;;;;;;;14.32;11.15;;;;;;;;;;5116072;28;20092;-61
2024/02/16 06:50:47;;;;;;;15.68;11.60;;;;;;;;;;5117594;28;20019;-61
2024/02/16 06:53:13;;;;;;;18.30;14.18;;;;;;;;;;5117581;28;20465;-61
2024/02/16 06:55:38;;;;;;;18.92;14.90;;;;;;;;;;5117448;28;20545;-60
2024/02/16 06:58:04;;;;;;;18.63;13.57;;;;;;;;;;5117736;28;20023;-61
2024/02/16 07:00:29;;;;;;;15.80;11.98;;;;;;;;;;5117407;28;20019;-61
2024/02/16 07:02:55;;;;;;;18.10;12.75;;;;;;;;;;5117425;28;20453;-60
2024/02/16 07:05:20;;;;;;;18.90;12.75;;;;;;;;;;5117901;28;20069;-60
2024/02/16 07:07:46;;;;;;;19.88;12.00;;;;;;;;;;5117439;28;20089;-61
2024/02/16 07:10:13;;;;;;;16.48;11.05;;;;;;;;;;5117309;28;20469;-61
2024/02/16 07:12:39;;;;;;;16.85;11.85;;;;;;;;;;5117258;28;20035;-61
2024/02/16 07:15:04;;;;;;;15.90;10.73;;;;;;;;;;5117220;28;20080;-60
2024/02/16 07:17:30;;;;;;;14.57;10.38;;;;;;;;;;5095280;28;20044;-60
2024/02/16 07:19:56;;;;;;;14.57;9.15;;;;;;;;;;5096735;28;20023;-60
2024/02/16 07:22:21;;;;;;;11.43;8.35;;;;;;;;;;5096739;28;20474;-60
2024/02/16 07:24:47;;;;;;;10.52;8.05;;;;;;;;;;5096629;28;20035;-61
2024/02/16 07:27:12;;;;;;;9.55;7.25;;;;;;;;;;5095276;28;20032;-60
2024/02/16 07:29:39;;;;;;;11.32;8.48;;;;;;;;;;5096475;28;20065;-60
2024/02/16 07:32:04;;;;;;;11.00;8.40;;;;;;;;;;5096430;28;20498;-60
2024/02/16 07:34:30;;;;;;;12.10;8.35;;;;;;;;;;5094850;28;20040;-60
2024/02/16 07:36:55;;;;;;;9.48;8.15;;;;;;;;;;5096504;28;20031;-60
2024/02/16 07:39:23;;;;;;;11.00;7.60;;;;;;;;;;5096554;28;20021;-60
2024/02/16 07:41:48;;;;;;;8.75;6.53;;;;;;;;;;5095067;28;20042;-60
2024/02/16 07:44:14;;;;;;;10.63;8.10;;;;;;;;;;5096123;28;20107;-60
2024/02/16 07:46:40;;;;;;;8.50;6.43;;;;;;;;;;5096094;28;20385;-60
2024/02/16 07:49:05;;;;;;;9.63;7.65;;;;;;;;;;5096088;28;20030;-61
2024/02/16 07:51:31;;;;;;;9.88;7.88;;;;;;;;;;5094740;28;20053;-60
2024/02/16 07:53:56;;;;;;;10.15;7.68;;;;;;;;;;5096290;28;20028;-60
2024/02/16 07:56:21;;;;;;;9.07;7.60;;;;;;;;;;5097023;28;20039;-60
2024/02/16 07:58:47;;;;;;;12.15;7.75;;;;;;;;;;5095048;28;20024;-61
2024/02/16 08:01:15;;;;;;;10.18;7.18;;;;;;;;;;5095633;28;20028;-60
2024/02/16 08:03:40;;;;;;;9.80;6.63;;;;;;;;;;5095785;28;20036;-60
2024/02/16 08:06:06;;;;;;;8.65;6.00;;;;;;;;;;5095805;28;20039;-60
2024/02/16 08:08:31;;;;;;;6.80;5.45;;;;;;;;;;5074313;28;20020;-60
2024/02/16 08:10:56;;;;;;;9.25;6.93;;;;;;;;;;5075899;28;20158;-60
2024/02/16 08:13:22;;;;;;;6.35;5.13;;;;;;;;;;5076121;28;20446;-60
2024/02/16 08:15:47;;;;;;;6.57;5.47;;;;;;;;;;5076083;28;20025;-60
2024/02/16 08:18:13;;;;;;;10.57;6.40;;;;;;;;;;5094070;28;20348;-60
2024/02/16 08:20:38;;;;;;;10.07;6.38;;;;;;;;;;5095951;28;20043;-60
2024/02/16 08:23:04;;;;;;;10.45;6.60;;;;;;;;;;5094597;28;20027;-60
2024/02/16 08:25:30;;;;;;;8.25;6.07;;;;;;;;;;5095723;28;20417;-60
2024/02/16 08:27:55;;;;;;;13.40;10.52;;;;;;;;;;5095839;28;20027;-60
2024/02/16 08:30:22;;;;;;;11.60;7.38;;;;;;;;;;5094010;28;20031;-60
2024/02/16 08:32:47;;;;;;;7.35;5.00;;;;;;;;;;5094829;28;20039;-60
2024/02/16 08:35:14;;;;;;;8.93;6.45;;;;;;;;;;5095697;28;20028;-60
2024/02/16 08:37:39;;;;;;;17.08;10.75;;;;;;;;;;5095873;28;20103;-61
2024/02/16 08:40:05;;;;;;;24.05;15.35;;;;;;;;;;5095863;28;20052;-60
2024/02/16 08:42:31;;;;;;;12.65;9.27;;;;;;;;;;5094643;28;20032;-60
2024/02/16 08:45:00;;;;;;;9.00;6.40;;;;;;;;;;5095352;28;20035;-60
2024/02/16 08:47:25;;;;;;;8.27;6.43;;;;;;;;;;5095258;28;20553;-60
2024/02/16 08:49:51;;;;;;;10.77;5.80;;;;;;;;;;5095295;28;20110;-60
2024/02/16 08:52:16;;;;;;;14.27;7.32;;;;;;;;;;5095536;28;20032;-60
2024/02/16 08:54:42;;;;;;;8.95;5.60;;;;;;;;;;5095375;28;20485;-60
2024/02/16 08:57:08;;;;;;;258.15;127.07;;;;;;;;;;5095616;28;20069;-62
2024/02/16 08:59:34;;;;;;;23.75;15.10;;;;;;;;;;5094769;28;20112;-62
2024/02/16 09:01:59;;;;;;;4.93;4.38;;;;;;;;;;5094998;28;20039;-61
2024/02/16 09:04:25;;;;;;;4.63;3.63;;;;;;;;;;5094689;28;20466;-62
2024/02/16 09:06:50;;;;;;;4.45;3.70;;;;;;;;;;5094910;28;20032;-62
2024/02/16 09:09:17;;;;;;;5.50;3.40;;;;;;;;;;5094877;28;20052;-62
2024/02/16 09:11:42;;;;;;;4.32;3.45;;;;;;;;;;5093116;28;20428;-61
2024/02/16 09:14:08;;;;;;;3.83;3.42;;;;;;;;;;5094962;28;20067;-62
2024/02/16 09:16:33;;;;;;;4.95;3.17;;;;;;;;;;5094569;28;20066;-62
2024/02/16 09:18:59;;;;;;;3.88;3.05;;;;;;;;;;5094789;28;20106;-61
2024/02/16 09:21:26;;;;;;;4.03;3.00;;;;;;;;;;5094240;28;20028;-62
2024/02/16 09:23:52;;;;;;;3.45;3.10;;;;;;;;;;5094352;28;20019;-62
2024/02/16 09:26:18;;;;;;;3.72;3.00;;;;;;;;;;5094621;28;20107;-62
2024/02/16 09:28:43;;;;;;;4.18;3.10;;;;;;;;;;5094267;28;20028;-62
2024/02/16 09:31:09;;;;;;;3.03;2.72;;;;;;;;;;5094517;28;20122;-62
2024/02/16 09:33:35;;;;;;;3.13;2.88;;;;;;;;;;5094781;28;20042;-62
2024/02/16 09:36:00;;;;;;;2.80;2.50;;;;;;;;;;5092949;28;20390;-62
2024/02/16 09:38:26;;;;;;;2.60;2.40;;;;;;;;;;5094582;28;20031;-62
2024/02/16 09:40:52;;;;;;;2.90;2.40;;;;;;;;;;5094342;28;20040;-62
2024/02/16 09:43:24;;;;;;;2.35;2.15;;;;;;;;;;5094055;28;20028;-62
2024/02/16 09:45:52;;;;;;;2.53;2.30;;;;;;;;;;5093997;28;20434;-62
2024/02/16 09:48:18;;;;;;;2.75;2.55;;;;;;;;;;5092705;28;20051;-62
2024/02/16 09:50:45;;;;;;;2.30;2.10;;;;;;;;;;5093950;28;20382;-62
2024/02/16 09:53:10;;;;;;;2.40;2.20;;;;;;;;;;5093889;28;20024;-62
2024/02/16 09:55:36;;;;;;;2.60;2.10;;;;;;;;;;5094394;28;20061;-62
2024/02/16 09:58:02;;;;;;;2.10;1.90;;;;;;;;;;5094065;28;20032;-62
2024/02/16 10:00:27;;;;;;;2.70;2.20;;;;;;;;;;5092758;28;20028;-62
2024/02/16 10:02:53;;;;;;;2.45;2.00;;;;;;;;;;5094122;28;20454;-62
2024/02/16 10:05:21;;;;;;;2.25;2.08;;;;;;;;;;5094057;28;20035;-62
2024/02/16 10:07:47;;;;;;;2.28;2.00;;;;;;;;;;5094182;28;20020;-62
2024/02/16 10:10:22;;;;;;;2.65;2.17;;;;;;;;;;5093987;28;20489;-62
2024/02/16 10:12:47;;;;;;;2.78;2.42;;;;;;;;;;5094212;28;20481;-62
2024/02/16 10:15:18;;;;;;;2.35;2.05;;;;;;;;;;5093683;28;20028;-62
2024/02/16 10:17:44;;;;;;;2.00;1.83;;;;;;;;;;5092325;28;20501;-63
2024/02/16 10:20:11;;;;;;;1.75;1.63;;;;;;;;;;5094188;28;20024;-62
2024/02/16 10:22:36;;;;;;;2.97;2.50;;;;;;;;;;5095502;28;20478;-62
2024/02/16 10:25:11;;;;;;;2.00;1.90;;;;;;;;;;5098247;28;20063;-62
2024/02/16 10:27:37;;;;;;;2.95;2.10;;;;;;;;;;5097973;28;20107;-62
2024/02/16 10:30:07;;;;;;;3.92;1.70;;;;;;;;;;5098173;28;20052;-62
2024/02/16 10:32:33;;;;;;;2.30;1.85;;;;;;;;;;5097913;28;20031;-62
2024/02/16 10:34:59;;;;;;;2.08;1.92;;;;;;;;;;5097279;28;20044;-62
2024/02/16 10:37:24;;;;;;;2.83;1.75;;;;;;;;;;5098196;28;20036;-62
2024/02/16 10:39:51;;;;;;;3.00;1.80;;;;;;;;;;5098261;28;20039;-63
2024/02/16 10:42:16;;;;;;;1.83;1.70;;;;;;;;;;5097786;28;20024;-63
2024/02/16 10:44:43;;;;;;;1.67;1.58;;;;;;;;;;5097701;28;20080;-63
2024/02/16 10:47:08;;;;;;;1.65;1.55;;;;;;;;;;5096083;28;20114;-64
2024/02/16 10:49:34;;;;;;;2.03;1.83;;;;;;;;;;5096061;28;20047;-66
2024/02/16 10:51:59;;;;;;;1.85;1.75;;;;;;;;;;5097214;28;20081;-63
2024/02/16 10:54:30;;;;;;;2.03;1.60;;;;;;;;;;5097495;28;20059;-63
2024/02/16 10:56:55;;;;;;;1.85;1.75;;;;;;;;;;5097340;28;20040;-63
2024/02/16 10:59:20;;;;;;;2.00;1.55;;;;;;;;;;5097417;28;20027;-63
2024/02/16 11:01:46;;;;;;;1.90;1.80;;;;;;;;;;5091255;28;20035;-63
2024/02/16 11:04:12;;;;;;;2.40;1.48;;;;;;;;;;5094617;28;20032;-63
2024/02/16 11:06:57;;;;;;;1.92;1.83;;;;;;;;;;5092794;28;20051;-63
2024/02/16 11:09:29;;;;;;;1.77;1.67;;;;;;;;;;5093754;28;20492;-63
2024/02/16 11:11:58;;;;;;;2.33;1.58;;;;;;;;;;5093967;28;20073;-63
2024/02/16 11:14:24;;;;;;;1.80;1.70;;;;;;;;;;5093758;28;20040;-63
2024/02/16 11:16:53;;;;;;;1.55;1.45;;;;;;;;;;5093481;28;20125;-63
2024/02/16 11:19:19;;;;;;;1.50;1.40;;;;;;;;;;5093959;28;20040;-63
2024/02/16 11:21:57;;;;;;;1.63;1.52;;;;;;;;;;5092302;28;20024;-63
2024/02/16 11:24:32;;;;;;;1.65;1.30;;;;;;;;;;5093543;28;20078;-63
2024/02/16 11:26:58;;;;;;;2.13;1.58;;;;;;;;;;5092394;28;20099;-63
2024/02/16 11:29:25;;;;;;;1.70;1.60;;;;;;;;;;5092104;28;20595;-63
2024/02/16 11:31:50;;;;;;;2.63;1.40;;;;;;;;;;5092231;28;20793;-63
2024/02/16 11:34:27;;;;;;;1.55;1.42;;;;;;;;;;5093502;28;20048;-63
2024/02/16 11:36:54;;;;;;;1.80;1.70;;;;;;;;;;5093362;28;20024;-63
2024/02/16 11:39:20;;;;;;;1.48;1.38;;;;;;;;;;5092373;28;20032;-63
2024/02/16 11:41:45;;;;;;;1.63;1.52;;;;;;;;;;5093770;28;20027;-63
2024/02/16 11:44:13;;;;;;;2.28;2.08;;;;;;;;;;5093933;28;20054;-63
2024/02/16 11:46:38;;;;;;;1.83;1.60;;;;;;;;;;5093259;28;20040;-63
2024/02/16 11:49:07;;;;;;;3.13;1.73;;;;;;;;;;5093380;28;20036;-63
2024/02/16 11:51:32;;;;;;;1.98;1.75;;;;;;;;;;5093290;28;20031;-63
2024/02/16 11:53:58;;;;;;;2.10;1.65;;;;;;;;;;5075789;28;20047;-63
2024/02/16 11:56:26;;;;;;;1.60;1.50;;;;;;;;;;5094708;28;20032;-63
2024/02/16 11:58:51;;;;;;;1.90;1.63;;;;;;;;;;5094754;28;20063;-63
2024/02/16 12:01:17;;;;;;;2.25;1.85;;;;;;;;;;5094370;28;20082;-63
2024/02/16 12:03:42;;;;;;;2.40;2.20;;;;;;;;;;5094345;28;20028;-63
2024/02/16 12:06:08;;;;;;;1.73;1.63;;;;;;;;;;5094427;28;20119;-63
2024/02/16 12:08:34;;;;;;;2.30;2.10;;;;;;;;;;5094128;28;20035;-63
2024/02/16 12:11:02;;;;;;;2.40;2.20;;;;;;;;;;5092932;28;20115;-64
2024/02/16 12:13:27;;;;;;;2.63;2.05;;;;;;;;;;5093840;28;20032;-63
2024/02/16 12:15:53;;;;;;;3.90;2.13;;;;;;;;;;5093370;28;20490;-59
2024/02/16 12:18:25;;;;;;;3.67;2.20;;;;;;;;;;5093069;28;20048;-63
2024/02/16 12:21:18;;;;;;;2.85;2.40;;;;;;;;;;5092501;28;20105;-63
2024/02/16 12:23:44;;;;;;;3.67;2.65;;;;;;;;;;5073248;28;20568;-62
2024/02/16 12:26:10;;;;;;;2.65;2.45;;;;;;;;;;5092175;28;20135;-63
2024/02/16 12:28:36;;;;;;;3.88;2.58;;;;;;;;;;5091879;28;20123;-63
2024/02/16 12:31:02;;;;;;;3.55;2.67;;;;;;;;;;5090135;28;20024;-63
2024/02/16 12:33:27;;;;;;;3.35;2.47;;;;;;;;;;5092397;28;20077;-63
2024/02/16 12:35:53;;;;;;;3.80;2.30;;;;;;;;;;5091711;28;20028;-63
2024/02/16 12:38:19;;;;;;;3.40;2.70;;;;;;;;;;5090660;28;20802;-63
2024/02/16 12:40:48;;;;;;;3.00;2.55;;;;;;;;;;5090349;28;20107;-62
2024/02/16 12:43:13;;;;;;;2.55;2.35;;;;;;;;;;5092275;28;20494;-63
2024/02/16 12:45:39;;;;;;;2.70;2.13;;;;;;;;;;5091738;28;20071;-63
2024/02/16 12:48:05;;;;;;;3.13;1.90;;;;;;;;;;5092267;28;20551;-63
2024/02/16 12:50:33;;;;;;;3.92;2.53;;;;;;;;;;5092181;28;20123;-63
2024/02/16 12:52:59;;;;;;;2.58;2.30;;;;;;;;;;5092169;28;20032;-63
2024/02/16 12:55:24;;;;;;;3.05;1.90;;;;;;;;;;5091906;28;20031;-62
2024/02/16 12:57:50;;;;;;;4.40;2.28;;;;;;;;;;5091867;28;20141;-62
2024/02/16 13:00:16;;;;;;;2.38;2.17;;;;;;;;;;5091706;28;20020;-62
2024/02/16 13:02:41;;;;;;;2.40;2.20;;;;;;;;;;5091745;28;20028;-62
2024/02/16 13:05:08;;;;;;;2.05;1.88;;;;;;;;;;5091743;28;20366;-62
2024/02/16 13:07:33;;;;;;;2.40;2.20;;;;;;;;;;5091903;28;20028;-62
2024/02/16 13:09:58;;;;;;;2.50;2.30;;;;;;;;;;5091690;28;20190;-62
2024/02/16 13:12:24;;;;;;;2.45;2.25;;;;;;;;;;5091541;28;20081;-62
2024/02/16 13:14:49;;;;;;;2.38;2.17;;;;;;;;;;5091657;28;20044;-62
2024/02/16 13:17:15;;;;;;;2.40;2.20;;;;;;;;;;5072712;28;20051;-62
2024/02/16 13:19:40;;;;;;;2.70;2.20;;;;;;;;;;5091431;28;20031;-62
2024/02/16 13:22:05;;;;;;;4.78;2.55;;;;;;;;;;5090424;28;20032;-62
2024/02/16 13:24:31;;;;;;;2.85;2.35;;;;;;;;;;5091433;28;20032;-62
2024/02/16 13:26:57;;;;;;;2.47;2.17;;;;;;;;;;5091751;28;20048;-62
2024/02/16 13:29:23;;;;;;;2.63;2.42;;;;;;;;;;5090296;28;20115;-63
2024/02/16 13:31:48;;;;;;;3.20;2.67;;;;;;;;;;5091087;28;20126;-63
2024/02/16 13:34:16;;;;;;;2.53;2.33;;;;;;;;;;5091357;28;20060;-63
2024/02/16 13:36:42;;;;;;;4.38;3.40;;;;;;;;;;5091319;28;20032;-63
2024/02/16 13:39:07;;;;;;;4.85;2.92;;;;;;;;;;5089995;28;20067;-63
2024/02/16 13:41:33;;;;;;;3.33;2.53;;;;;;;;;;5091179;28;20031;-62
2024/02/16 13:43:59;;;;;;;2.58;2.22;;;;;;;;;;5091301;28;20500;-62
2024/02/16 13:46:24;;;;;;;3.65;2.60;;;;;;;;;;5091251;28;20105;-62
2024/02/16 13:48:49;;;;;;;3.15;2.75;;;;;;;;;;5091569;28;20027;-62
2024/02/16 13:51:15;;;;;;;3.78;2.67;;;;;;;;;;5091709;28;20042;-62
2024/02/16 13:53:40;;;;;;;2.67;2.45;;;;;;;;;;5091082;28;20028;-62
2024/02/16 13:56:06;;;;;;;2.80;2.40;;;;;;;;;;5090928;28;20028;-62
2024/02/16 13:58:32;;;;;;;3.50;2.60;;;;;;;;;;5090168;28;20032;-62
2024/02/16 14:01:03;;;;;;;2.50;2.30;;;;;;;;;;5090911;28;20035;-62
2024/02/16 14:03:28;;;;;;;3.20;2.72;;;;;;;;;;5091070;28;20042;-62
2024/02/16 14:05:53;;;;;;;3.53;2.92;;;;;;;;;;5091040;28;20024;-62
2024/02/16 14:08:19;;;;;;;4.57;2.95;;;;;;;;;;5090881;28;20472;-62
2024/02/16 14:30:55;;;;;;;4.25;3.10;;;;;;;;;;5089476;28;20405;-61
2024/02/16 14:33:22;;;;;;;5.88;2.78;;;;;;;;;;5089777;28;20032;-61
2024/02/16 14:35:48;;;;;;;4.55;3.13;;;;;;;;;;5091150;28;20119;-61
2024/02/16 14:38:13;;;;;;;4.25;2.50;;;;;;;;;;5090989;28;20421;-61
2024/02/16 14:40:39;;;;;;;3.70;2.58;;;;;;;;;;5090645;28;20092;-61
2024/02/16 14:43:04;;;;;;;3.58;2.45;;;;;;;;;;5090778;28;20069;-61